createdAt,value
2022-10-25T00:01:01.823Z,13.10
2022-10-25T00:03:31.114Z,13.20
2022-10-25T00:05:59.262Z,13.20
2022-10-25T00:08:27.114Z,13.10
2022-10-25T00:10:55.001Z,13.10
2022-10-25T00:13:22.894Z,13.10
2022-10-25T00:15:51.047Z,13.00
2022-10-25T00:18:19.097Z,13.00
2022-10-25T00:20:48.451Z,13.00
2022-10-25T00:23:16.787Z,13.00
2022-10-25T00:25:44.596Z,13.00
2022-10-25T00:28:12.653Z,13.00
2022-10-25T00:30:40.573Z,13.00
2022-10-25T00:33:08.489Z,13.00
2022-10-25T00:35:37.193Z,13.00
2022-10-25T00:38:07.411Z,12.90
2022-10-25T00:40:35.696Z,12.90
2022-10-25T00:43:03.986Z,12.90
2022-10-25T00:45:31.913Z,12.90
2022-10-25T00:48:01.345Z,12.90
2022-10-25T00:50:37.310Z,12.90
2022-10-25T00:53:09.437Z,12.80
2022-10-25T00:55:38.642Z,12.80
2022-10-25T00:58:08.353Z,12.80
2022-10-25T01:00:36.808Z,12.80
2022-10-25T01:03:05.168Z,12.80
2022-10-25T01:05:33.556Z,12.80
2022-10-25T01:08:01.613Z,12.80
2022-10-25T01:10:30.972Z,12.80
2022-10-25T01:12:59.661Z,12.80
2022-10-25T01:15:31.188Z,12.80
2022-10-25T01:18:03.386Z,12.70
2022-10-25T01:20:56.344Z,12.70
2022-10-25T01:23:36.591Z,12.70
2022-10-25T01:26:25.237Z,12.70
2022-10-25T01:29:02.707Z,12.60
2022-10-25T01:31:36.269Z,12.60
2022-10-25T01:34:07.280Z,12.60
2022-10-25T01:36:40.906Z,12.60
2022-10-25T01:39:11.507Z,12.70
2022-10-25T01:41:45.136Z,12.70
2022-10-25T01:44:23.051Z,12.70
2022-10-25T01:46:54.583Z,12.70
2022-10-25T01:49:25.335Z,12.70
2022-10-25T01:51:53.359Z,12.70
2022-10-25T01:54:22.840Z,12.70
2022-10-25T01:56:59.227Z,12.70
2022-10-25T01:59:32.661Z,12.70
2022-10-25T02:02:04.941Z,12.70
2022-10-25T02:04:38.216Z,12.70
2022-10-25T02:07:09.029Z,12.70
2022-10-25T02:09:42.145Z,12.70
2022-10-25T02:12:17.458Z,12.70
2022-10-25T02:14:50.435Z,12.70
2022-10-25T02:17:21.628Z,12.80
2022-10-25T02:19:51.929Z,12.80
2022-10-25T02:22:22.017Z,12.80
2022-10-25T02:24:51.403Z,12.80
2022-10-25T02:27:20.800Z,12.70
2022-10-25T02:29:48.870Z,12.70
2022-10-25T02:32:16.950Z,12.70
2022-10-25T02:34:49.199Z,12.60
2022-10-25T02:37:17.023Z,12.60
2022-10-25T02:39:45.435Z,12.60
2022-10-25T02:42:13.086Z,12.60
2022-10-25T02:44:40.869Z,12.60
2022-10-25T02:47:08.661Z,12.60
2022-10-25T02:49:36.562Z,12.60
2022-10-25T02:52:05.858Z,12.60
2022-10-25T02:54:33.752Z,12.60
2022-10-25T02:57:01.564Z,12.60
2022-10-25T02:59:29.725Z,12.60
2022-10-25T03:01:57.732Z,12.60
2022-10-25T03:04:25.646Z,12.60
2022-10-25T03:06:53.512Z,12.60
2022-10-25T03:09:22.886Z,12.50
2022-10-25T03:11:50.755Z,12.50
2022-10-25T03:14:18.587Z,12.50
2022-10-25T03:19:19.230Z,12.50
2022-10-25T03:21:47.099Z,12.50
2022-10-25T03:24:15.002Z,12.60
2022-10-25T03:26:44.172Z,12.60
2022-10-25T03:29:12.010Z,12.60
2022-10-25T03:31:40.043Z,12.60
2022-10-25T03:34:07.927Z,12.60
2022-10-25T03:36:35.765Z,12.60
2022-10-25T03:39:03.654Z,12.60
2022-10-25T03:41:31.555Z,12.60
2022-10-25T03:44:02.508Z,12.60
2022-10-25T03:46:30.750Z,12.60
2022-10-25T03:48:58.671Z,12.60
2022-10-25T03:51:26.547Z,12.50
2022-10-25T03:53:54.363Z,12.50
2022-10-25T03:56:22.211Z,12.50
2022-10-25T03:58:50.043Z,12.50
2022-10-25T04:01:19.386Z,12.50
2022-10-25T04:03:47.309Z,12.50
2022-10-25T04:06:15.217Z,12.40
2022-10-25T04:08:43.065Z,12.40
2022-10-25T04:11:10.946Z,12.40
2022-10-25T04:13:38.995Z,12.30
2022-10-25T04:16:07.372Z,12.30
2022-10-25T04:18:36.685Z,12.20
2022-10-25T04:21:04.670Z,12.20
2022-10-25T04:23:32.571Z,12.20
2022-10-25T04:26:00.385Z,12.20
2022-10-25T04:28:28.343Z,12.20
2022-10-25T04:30:56.287Z,12.20
2022-10-25T04:33:24.122Z,12.20
2022-10-25T04:35:58.365Z,12.20
2022-10-25T04:38:26.754Z,12.20
2022-10-25T04:41:01.351Z,12.20
2022-10-25T04:43:29.811Z,12.20
2022-10-25T04:46:00.422Z,12.20
2022-10-25T04:48:28.399Z,12.20
2022-10-25T04:50:59.526Z,12.20
2022-10-25T04:53:34.025Z,12.20
2022-10-25T04:56:02.992Z,12.20
2022-10-25T04:58:31.639Z,12.20
2022-10-25T05:01:00.513Z,12.20
2022-10-25T05:03:28.917Z,12.20
2022-10-25T05:06:06.570Z,12.20
2022-10-25T05:08:34.614Z,12.20
2022-10-25T05:11:02.700Z,12.20
2022-10-25T05:13:32.635Z,12.20
2022-10-25T05:16:00.547Z,12.20
2022-10-25T05:18:28.431Z,12.20
2022-10-25T05:20:57.099Z,12.20
2022-10-25T05:23:27.391Z,12.20
2022-10-25T05:26:01.291Z,12.20
2022-10-25T05:28:29.227Z,12.20
2022-10-25T05:30:57.154Z,12.30
2022-10-25T05:33:25.116Z,12.30
2022-10-25T05:35:53.116Z,12.20
2022-10-25T05:38:21.068Z,12.30
2022-10-25T05:40:54.829Z,12.20
2022-10-25T05:43:22.921Z,12.20
2022-10-25T05:45:51.060Z,12.20
2022-10-25T05:48:19.829Z,12.20
2022-10-25T05:50:47.768Z,12.20
2022-10-25T05:53:15.667Z,12.20
2022-10-25T05:55:43.529Z,12.10
2022-10-25T05:58:12.730Z,12.10
2022-10-25T06:00:40.564Z,12.10
2022-10-25T06:03:08.501Z,12.10
2022-10-25T06:05:36.337Z,12.10
2022-10-25T06:08:04.175Z,12.10
2022-10-25T06:10:31.996Z,12.20
2022-10-25T06:13:01.502Z,12.20
2022-10-25T06:15:30.694Z,12.40
2022-10-25T06:17:58.554Z,12.50
2022-10-25T06:20:29.292Z,12.50
2022-10-25T06:22:57.165Z,12.60
2022-10-25T06:25:24.999Z,12.70
2022-10-25T06:27:52.826Z,12.80
2022-10-25T06:30:20.690Z,12.90
2022-10-25T06:32:50.021Z,13.00
2022-10-25T06:35:17.981Z,13.10
2022-10-25T06:37:45.954Z,13.20
2022-10-25T06:40:14.031Z,13.30
2022-10-25T06:42:42.413Z,13.40
2022-10-25T06:45:10.810Z,13.50
2022-10-25T06:47:45.803Z,13.60
2022-10-25T06:50:15.148Z,13.70
2022-10-25T06:52:43.001Z,13.80
2022-10-25T06:55:10.869Z,13.80
2022-10-25T06:57:38.718Z,13.90
2022-10-25T07:00:07.173Z,13.80
2022-10-25T07:02:35.011Z,13.80
2022-10-25T07:05:03.021Z,13.80
2022-10-25T07:07:32.206Z,13.80
2022-10-25T07:10:00.056Z,13.90
2022-10-25T07:12:28.005Z,13.80
2022-10-25T07:14:55.871Z,13.80
2022-10-25T07:17:23.771Z,13.80
2022-10-25T07:19:51.984Z,13.80
2022-10-25T07:22:19.885Z,13.80
2022-10-25T07:24:49.049Z,13.80
2022-10-25T07:27:16.945Z,13.80
2022-10-25T07:29:44.980Z,13.90
2022-10-25T07:32:12.845Z,13.90
2022-10-25T07:34:40.865Z,14.00
2022-10-25T07:37:08.735Z,14.10
2022-10-25T07:39:36.821Z,14.20
2022-10-25T07:42:06.173Z,14.30
2022-10-25T07:44:34.152Z,14.40
2022-10-25T07:47:02.351Z,14.70
2022-10-25T07:49:30.257Z,14.70
2022-10-25T07:51:58.416Z,14.90
2022-10-25T07:54:26.266Z,15.00
2022-10-25T07:56:54.456Z,15.10
2022-10-25T07:59:24.054Z,15.20
2022-10-25T08:01:52.360Z,15.30
2022-10-25T08:04:20.543Z,15.40
2022-10-25T08:06:48.463Z,15.40
2022-10-25T08:09:36.941Z,15.30
2022-10-25T08:12:04.505Z,15.30
2022-10-25T08:14:36.374Z,15.30
2022-10-25T08:17:07.744Z,15.40
2022-10-25T08:19:35.835Z,15.50
2022-10-25T08:22:03.932Z,15.50
2022-10-25T08:24:32.423Z,15.60
2022-10-25T08:27:00.444Z,15.80
2022-10-25T08:29:28.571Z,16.00
2022-10-25T08:31:57.956Z,16.20
2022-10-25T08:34:27.481Z,16.40
2022-10-25T08:36:57.528Z,16.60
2022-10-25T08:39:25.672Z,16.70
2022-10-25T08:41:55.080Z,16.60
2022-10-25T08:44:32.935Z,16.60
2022-10-25T08:47:03.560Z,16.70
2022-10-25T08:49:34.946Z,17.30
2022-10-25T08:52:03.053Z,18.20
2022-10-25T08:54:33.989Z,18.50
2022-10-25T08:57:15.715Z,18.40
2022-10-25T08:59:45.327Z,18.50
2022-10-25T09:02:18.523Z,18.60
2022-10-25T09:04:46.655Z,18.60
2022-10-25T09:07:32.245Z,18.50
2022-10-25T09:10:03.628Z,18.40
2022-10-25T09:12:36.999Z,18.40
2022-10-25T09:15:10.361Z,18.50
2022-10-25T09:17:43.998Z,18.20
2022-10-25T09:20:16.328Z,18.00
2022-10-25T09:22:46.326Z,18.20
2022-10-25T09:25:21.186Z,18.60
2022-10-25T09:27:55.471Z,18.60
2022-10-25T09:30:23.623Z,18.50
2022-10-25T09:32:54.781Z,18.50
2022-10-25T09:35:25.233Z,18.40
2022-10-25T09:37:54.341Z,18.60
2022-10-25T09:40:24.273Z,18.70
2022-10-25T09:42:54.445Z,19.00
2022-10-25T09:45:25.385Z,19.80
2022-10-25T09:47:59.402Z,20.20
2022-10-25T09:50:29.131Z,20.50
2022-10-25T09:53:02.499Z,21.00
2022-10-25T09:55:33.651Z,21.10
2022-10-25T09:58:02.070Z,21.00
2022-10-25T10:00:30.114Z,20.50
2022-10-25T10:02:59.464Z,20.30
2022-10-25T10:05:29.648Z,19.90
2022-10-25T10:07:57.608Z,19.90
2022-10-25T10:10:27.202Z,19.80
2022-10-25T10:15:32.894Z,20.70
2022-10-25T10:18:19.229Z,21.40
2022-10-25T10:20:56.467Z,21.30
2022-10-25T10:23:24.524Z,21.40
2022-10-25T10:25:52.470Z,21.30
2022-10-25T10:28:20.650Z,20.80
2022-10-25T10:30:53.935Z,20.40
2022-10-25T10:33:22.083Z,19.90
2022-10-25T10:35:54.310Z,19.50
2022-10-25T10:38:24.889Z,19.10
2022-10-25T10:40:54.208Z,19.00
2022-10-25T10:43:28.724Z,18.90
2022-10-25T10:46:02.243Z,18.80
2022-10-25T10:48:35.763Z,18.90
2022-10-25T10:51:09.070Z,18.90
2022-10-25T10:53:41.749Z,19.10
2022-10-25T10:56:10.140Z,19.50
2022-10-25T10:58:39.791Z,20.60
2022-10-25T11:01:08.967Z,21.20
2022-10-25T11:03:59.032Z,22.10
2022-10-25T11:06:30.773Z,23.10
2022-10-25T11:09:13.334Z,24.30
2022-10-25T11:11:41.653Z,24.50
2022-10-25T11:14:12.159Z,24.10
2022-10-25T11:16:52.144Z,23.30
2022-10-25T11:19:34.867Z,22.40
2022-10-25T11:22:12.138Z,21.80
2022-10-25T11:24:46.756Z,21.20
2022-10-25T11:27:20.309Z,20.60
2022-10-25T11:30:03.514Z,20.60
2022-10-25T11:32:44.581Z,20.60
2022-10-25T11:35:20.829Z,21.10
2022-10-25T11:37:53.045Z,21.50
2022-10-25T11:40:23.685Z,21.60
2022-10-25T11:43:02.383Z,21.70
2022-10-25T11:45:36.813Z,21.60
2022-10-25T11:48:12.696Z,21.20
2022-10-25T11:50:44.273Z,21.30
2022-10-25T11:53:20.617Z,21.30
2022-10-25T11:55:52.322Z,21.10
2022-10-25T11:58:33.681Z,21.20
2022-10-25T12:01:07.422Z,21.30
2022-10-25T12:03:43.264Z,21.60
2022-10-25T12:06:16.617Z,22.80
2022-10-25T12:08:49.447Z,23.90
2022-10-25T12:11:20.508Z,25.00
2022-10-25T12:13:50.186Z,25.10
2022-10-25T12:16:19.930Z,25.40
2022-10-25T12:18:49.097Z,24.90
2022-10-25T12:21:21.233Z,23.80
2022-10-25T12:23:50.882Z,23.50
2022-10-25T12:26:24.595Z,22.80
2022-10-25T12:28:53.040Z,22.40
2022-10-25T12:31:22.507Z,21.90
2022-10-25T12:33:53.286Z,21.60
2022-10-25T12:36:27.126Z,21.10
2022-10-25T12:38:56.290Z,21.10
2022-10-25T12:41:27.117Z,21.60
2022-10-25T12:44:03.807Z,22.50
2022-10-25T12:46:40.552Z,23.10
2022-10-25T12:49:20.705Z,23.70
2022-10-25T12:52:00.506Z,24.10
2022-10-25T12:54:40.501Z,24.40
2022-10-25T12:57:17.718Z,24.50
2022-10-25T12:59:50.561Z,24.80
2022-10-25T13:02:31.472Z,24.90
2022-10-25T13:05:08.389Z,25.10
2022-10-25T13:07:37.204Z,25.00
2022-10-25T13:10:06.758Z,24.90
2022-10-25T13:12:36.141Z,24.50
2022-10-25T13:15:04.420Z,24.10
2022-10-25T13:17:48.141Z,23.10
2022-10-25T13:20:34.950Z,22.20
2022-10-25T13:23:23.560Z,21.50
2022-10-25T13:26:07.750Z,20.90
2022-10-25T13:28:44.102Z,20.60
2022-10-25T13:31:44.952Z,20.40
2022-10-25T13:34:23.404Z,20.70
2022-10-25T13:36:52.517Z,21.20
2022-10-25T13:39:24.342Z,21.80
2022-10-25T13:41:54.771Z,22.00
2022-10-25T13:44:26.471Z,22.10
2022-10-25T13:46:55.108Z,22.60
2022-10-25T13:49:27.971Z,22.90
2022-10-25T13:51:56.775Z,23.30
2022-10-25T13:54:25.062Z,23.50
2022-10-25T13:56:54.671Z,23.10
2022-10-25T13:59:58.728Z,22.90
2022-10-25T14:02:26.734Z,23.00
2022-10-25T14:04:54.709Z,23.20
2022-10-25T14:07:41.628Z,23.50
2022-10-25T14:10:14.584Z,23.80
2022-10-25T14:12:48.702Z,23.80
2022-10-25T14:15:19.203Z,24.00
2022-10-25T14:17:47.111Z,24.00
2022-10-25T14:20:23.636Z,23.60
2022-10-25T14:22:53.357Z,23.40
2022-10-25T14:25:22.804Z,23.60
2022-10-25T14:28:04.538Z,23.40
2022-10-25T14:30:34.766Z,23.40
2022-10-25T14:33:04.398Z,23.60
2022-10-25T14:35:33.786Z,23.50
2022-10-25T14:38:02.571Z,23.70
2022-10-25T14:40:31.789Z,23.90
2022-10-25T14:43:21.890Z,23.90
2022-10-25T14:45:56.181Z,24.10
2022-10-25T14:48:24.143Z,24.10
2022-10-25T14:50:52.373Z,23.90
2022-10-25T14:53:20.490Z,23.90
2022-10-25T14:55:52.376Z,23.90
2022-10-25T14:58:21.877Z,23.80
2022-10-25T15:00:57.227Z,23.10
2022-10-25T15:03:26.342Z,22.50
2022-10-25T15:05:54.382Z,21.70
2022-10-25T15:08:24.420Z,21.20
2022-10-25T15:10:54.437Z,20.80
2022-10-25T15:13:27.628Z,20.50
2022-10-25T15:15:55.822Z,20.20
2022-10-25T15:18:31.951Z,20.10
2022-10-25T15:21:04.399Z,20.30
2022-10-25T15:23:32.980Z,20.50
2022-10-25T15:26:15.841Z,20.80
2022-10-25T15:28:52.197Z,21.00
2022-10-25T15:31:23.877Z,21.20
2022-10-25T15:33:57.065Z,21.30
2022-10-25T15:36:26.045Z,21.10
2022-10-25T15:39:16.503Z,20.70
2022-10-25T15:41:44.014Z,20.40
2022-10-25T15:44:13.315Z,20.00
2022-10-25T15:46:41.554Z,19.80
2022-10-25T15:49:12.557Z,19.50
2022-10-25T15:51:41.527Z,19.20
2022-10-25T15:54:14.450Z,19.00
2022-10-25T15:56:42.459Z,18.80
2022-10-25T15:59:10.672Z,18.60
2022-10-25T16:01:42.546Z,18.50
2022-10-25T16:04:13.797Z,18.40
2022-10-25T16:06:42.093Z,18.20
2022-10-25T16:09:10.301Z,18.10
2022-10-25T16:11:39.401Z,18.00
2022-10-25T16:14:09.086Z,17.90
2022-10-25T16:16:41.213Z,17.80
2022-10-25T16:19:13.408Z,17.70
2022-10-25T16:21:41.354Z,17.60
2022-10-25T16:24:09.458Z,17.50
2022-10-25T16:26:38.063Z,17.50
2022-10-25T16:29:06.421Z,17.40
2022-10-25T16:31:34.406Z,17.30
2022-10-25T16:34:02.262Z,17.20
2022-10-25T16:36:31.696Z,17.10
2022-10-25T16:38:59.698Z,17.00
2022-10-25T16:41:29.360Z,16.90
2022-10-25T16:43:57.497Z,16.80
2022-10-25T16:46:25.936Z,16.70
2022-10-25T16:48:55.903Z,16.60
2022-10-25T16:51:26.267Z,16.50
2022-10-25T16:53:56.157Z,16.50
2022-10-25T16:56:24.253Z,16.40
2022-10-25T16:58:52.269Z,16.40
2022-10-25T17:01:21.092Z,16.50
2022-10-25T17:03:49.761Z,16.50
2022-10-25T17:06:39.607Z,16.50
2022-10-25T17:09:07.231Z,16.50
2022-10-25T17:11:36.088Z,16.40
2022-10-25T17:14:04.175Z,16.30
2022-10-25T17:16:32.423Z,16.20
2022-10-25T17:19:00.375Z,16.10
2022-10-25T17:21:28.738Z,15.90
2022-10-25T17:23:56.967Z,15.80
2022-10-25T17:26:26.327Z,15.70
2022-10-25T17:28:54.327Z,15.60
2022-10-25T17:31:22.435Z,15.50
2022-10-25T17:33:50.446Z,15.40
2022-10-25T17:36:19.922Z,15.40
2022-10-25T17:38:48.246Z,15.30
2022-10-25T17:41:16.309Z,15.20
2022-10-25T17:43:45.536Z,15.00
2022-10-25T17:46:17.499Z,14.90
2022-10-25T17:48:45.582Z,14.70
2022-10-25T17:51:15.420Z,14.60
2022-10-25T17:53:45.486Z,14.60
2022-10-25T17:56:14.411Z,14.50
2022-10-25T17:58:42.896Z,14.40
2022-10-25T18:01:12.788Z,14.20
2022-10-25T18:03:41.166Z,14.10
2022-10-25T18:06:10.669Z,14.10
2022-10-25T18:08:38.946Z,14.00
2022-10-25T18:11:10.516Z,13.90
2022-10-25T18:13:40.740Z,13.90
2022-10-25T18:16:09.272Z,13.90
2022-10-25T18:18:39.193Z,13.80
2022-10-25T18:21:07.726Z,13.70
2022-10-25T18:23:36.491Z,13.70
2022-10-25T18:26:06.001Z,13.60
2022-10-25T18:28:33.966Z,13.40
2022-10-25T18:31:04.557Z,13.30
2022-10-25T18:33:32.921Z,13.20
2022-10-25T18:36:03.050Z,13.20
2022-10-25T18:38:31.140Z,13.10
2022-10-25T18:40:59.291Z,13.00
2022-10-25T18:43:27.964Z,13.00
2022-10-25T18:45:59.539Z,12.90
2022-10-25T18:48:27.514Z,12.90
2022-10-25T18:50:55.662Z,12.90
2022-10-25T18:53:25.279Z,12.70
2022-10-25T18:55:53.410Z,12.70
2022-10-25T18:58:21.379Z,12.70
2022-10-25T19:00:49.251Z,12.70
2022-10-25T19:03:17.442Z,12.70
2022-10-25T19:05:45.600Z,12.70
2022-10-25T19:08:14.840Z,12.70
2022-10-25T19:10:44.335Z,12.50
2022-10-25T19:13:18.946Z,12.40
2022-10-25T19:15:47.211Z,12.40
2022-10-25T19:18:15.775Z,12.30
2022-10-25T19:20:46.374Z,12.30
2022-10-25T19:23:14.628Z,12.30
2022-10-25T19:25:44.015Z,12.30
2022-10-25T19:28:12.231Z,12.30
2022-10-25T19:30:40.833Z,12.30
2022-10-25T19:33:08.833Z,12.30
2022-10-25T19:35:36.855Z,12.20
2022-10-25T19:38:04.909Z,12.20
2022-10-25T19:40:32.932Z,12.20
2022-10-25T19:43:02.413Z,12.20
2022-10-25T19:45:30.396Z,12.20
2022-10-25T19:47:59.111Z,12.10
2022-10-25T19:50:28.775Z,12.00
2022-10-25T19:52:56.705Z,12.10
2022-10-25T19:55:24.663Z,12.10
2022-10-25T19:57:52.740Z,12.10
2022-10-25T20:00:22.071Z,12.10
2022-10-25T20:02:50.007Z,12.10
2022-10-25T20:05:18.062Z,12.10
2022-10-25T20:07:46.413Z,12.00
2022-10-25T20:10:15.015Z,12.10
2022-10-25T20:12:43.822Z,12.10
2022-10-25T20:15:14.469Z,12.10
2022-10-25T20:17:44.040Z,12.10
2022-10-25T20:20:12.489Z,12.00
2022-10-25T20:22:40.395Z,12.10
2022-10-25T20:25:08.910Z,12.10
2022-10-25T20:27:37.096Z,12.10
2022-10-25T20:30:05.371Z,12.10
2022-10-25T20:32:33.263Z,12.10
2022-10-25T20:35:05.653Z,12.20
2022-10-25T20:37:33.917Z,12.10
2022-10-25T20:40:03.881Z,12.20
2022-10-25T20:42:31.843Z,12.10
2022-10-25T20:44:59.922Z,12.10
2022-10-25T20:47:27.977Z,12.10
2022-10-25T20:49:57.998Z,12.10
2022-10-25T20:52:28.491Z,12.20
2022-10-25T20:57:30.377Z,12.10
2022-10-25T20:59:58.716Z,12.20
2022-10-25T21:02:28.143Z,12.20
2022-10-25T21:04:58.376Z,12.20
2022-10-25T21:07:26.725Z,12.20
2022-10-25T21:09:56.092Z,12.20
2022-10-25T21:12:24.219Z,12.20
2022-10-25T21:14:52.708Z,12.10
2022-10-25T21:17:20.822Z,12.20
2022-10-25T21:19:49.615Z,12.20
2022-10-25T21:22:17.757Z,12.20
2022-10-25T21:24:46.049Z,12.20
2022-10-25T21:27:15.412Z,12.30
2022-10-25T21:29:43.290Z,12.30
2022-10-25T21:32:11.239Z,12.30
2022-10-25T21:34:39.538Z,12.20
2022-10-25T21:37:07.569Z,12.30
2022-10-25T21:39:35.502Z,12.30
2022-10-25T21:42:03.440Z,12.30
2022-10-25T21:44:32.904Z,12.40
2022-10-25T21:47:00.948Z,12.40
2022-10-25T21:49:29.140Z,12.40
2022-10-25T21:51:57.250Z,12.50
2022-10-25T21:54:25.478Z,12.50
2022-10-25T21:56:53.626Z,12.50
2022-10-25T21:59:21.964Z,12.50
2022-10-25T22:01:51.390Z,12.50
2022-10-25T22:04:19.659Z,12.50
2022-10-25T22:06:47.803Z,12.40
2022-10-25T22:09:16.078Z,12.40
2022-10-25T22:11:44.158Z,12.40
2022-10-25T22:14:14.265Z,12.40
2022-10-25T22:16:42.474Z,12.40
2022-10-25T22:19:15.080Z,12.40
2022-10-25T22:21:43.781Z,12.40
2022-10-25T22:24:12.585Z,12.40
2022-10-25T22:26:43.281Z,12.40
2022-10-25T22:29:11.979Z,12.40
2022-10-25T22:31:40.464Z,12.50
2022-10-25T22:34:09.392Z,12.40
2022-10-25T22:36:39.966Z,12.40
2022-10-25T22:39:08.694Z,12.40
2022-10-25T22:41:36.781Z,12.40
2022-10-25T22:44:05.041Z,12.50
2022-10-25T22:46:33.841Z,12.50
2022-10-25T22:49:05.749Z,12.50
2022-10-25T22:51:33.852Z,12.60
2022-10-25T22:54:03.112Z,12.60
2022-10-25T22:56:31.689Z,12.70
2022-10-25T22:59:00.893Z,12.70
2022-10-25T23:01:29.813Z,12.80
2022-10-25T23:03:58.391Z,12.80
2022-10-25T23:06:27.105Z,12.80
2022-10-25T23:08:55.517Z,12.90
2022-10-25T23:11:25.697Z,12.90
2022-10-25T23:13:53.944Z,13.00
2022-10-25T23:16:21.837Z,13.00
2022-10-25T23:18:49.732Z,13.00
2022-10-25T23:21:20.901Z,13.10
2022-10-25T23:23:48.978Z,13.10
2022-10-25T23:26:18.289Z,13.10
2022-10-25T23:28:47.538Z,13.10
2022-10-25T23:31:15.438Z,13.10
2022-10-25T23:33:43.584Z,13.10
2022-10-25T23:36:12.626Z,13.00
2022-10-25T23:38:40.579Z,13.00
2022-10-25T23:41:08.456Z,13.00
2022-10-25T23:43:36.558Z,13.00
2022-10-25T23:46:06.019Z,13.10
2022-10-25T23:48:33.924Z,13.10
2022-10-25T23:51:02.763Z,13.10
2022-10-25T23:53:30.836Z,13.20
2022-10-25T23:55:58.913Z,13.20
2022-10-25T23:58:26.972Z,13.20
